Tie Plant, Mississippi
Current Conditions -  °F | °C
As of 3:55 PM on Wednesday 28 Jan 2015 (Local Time) from KGNF Reporting Station
Clear Clear  
Wind Chill: 61°   Ceiling: Unl
Heat Index: 61°   Visibility: 10mi
Dew Point: 34°   Wind: 7mph
Humidity: 36%   Direction: 100°E
Pressure: 30.18"   Gusts: NA
Location:  33.74°N, 89.79°W
Report Text: KGNF 282155Z AUTO 10006KT 10SM CLR 16/01 A3018 RMK AO2
Loading
Personal Weather Stations






























Interactive Weather Map New forecast layout! Learn more

10-Day Weather Forecast

Advertisements
Track Severe Weather on mobile